createdAt,value
2023-02-23T00:00:29.420Z,55.95
2023-02-23T00:03:01.547Z,55.85
2023-02-23T00:05:31.612Z,55.76
2023-02-23T00:08:00.100Z,55.77
2023-02-23T00:10:31.956Z,55.75
2023-02-23T00:13:00.958Z,55.96
2023-02-23T00:15:32.103Z,55.94
2023-02-23T00:18:01.105Z,55.85
2023-02-23T00:20:29.891Z,55.72
2023-02-23T00:22:59.389Z,55.77
2023-02-23T00:25:31.257Z,56.07
2023-02-23T00:28:00.054Z,55.95
2023-02-23T00:30:28.525Z,56.08
2023-02-23T00:32:57.113Z,56.36
2023-02-23T00:35:25.501Z,56.29
2023-02-23T00:37:59.201Z,55.97
2023-02-23T00:40:27.994Z,55.94
2023-02-23T00:42:56.475Z,55.87
2023-02-23T00:45:26.494Z,55.58
2023-02-23T00:47:55.387Z,55.74
2023-02-23T00:50:24.690Z,55.93
2023-02-23T00:52:53.176Z,56.01
2023-02-23T00:55:21.552Z,55.83
2023-02-23T00:57:51.572Z,55.86
2023-02-23T01:00:21.084Z,56.15
2023-02-23T01:02:50.687Z,56.23
2023-02-23T01:05:20.702Z,56.08
2023-02-23T01:07:51.351Z,56.19
2023-02-23T01:10:19.928Z,56.02
2023-02-23T01:12:50.622Z,55.91
2023-02-23T01:15:20.370Z,56.11
2023-02-23T01:17:48.850Z,56.35
2023-02-23T01:20:19.422Z,56.33
2023-02-23T01:22:51.743Z,56.23
2023-02-23T01:25:20.342Z,56.33
2023-02-23T01:27:48.822Z,56.27
2023-02-23T01:30:18.464Z,56.13
2023-02-23T01:32:46.888Z,56.31
2023-02-23T01:35:15.296Z,56.33
2023-02-23T01:37:44.169Z,56.50
2023-02-23T01:40:29.064Z,56.46
2023-02-23T01:43:07.165Z,56.36
2023-02-23T01:45:36.678Z,56.27
2023-02-23T01:48:14.613Z,56.51
2023-02-23T01:50:49.615Z,56.36
2023-02-23T01:53:18.106Z,56.68
2023-02-23T01:55:46.483Z,56.68
2023-02-23T01:58:20.079Z,56.71
2023-02-23T02:00:57.000Z,56.80
2023-02-23T02:03:31.399Z,56.87
2023-02-23T02:06:02.221Z,57.02
2023-02-23T02:08:31.353Z,56.94
2023-02-23T02:11:25.606Z,56.79
2023-02-23T02:13:55.623Z,56.73
2023-02-23T02:17:02.714Z,56.99
2023-02-23T02:20:33.266Z,57.01
2023-02-23T02:23:27.563Z,56.84
2023-02-23T02:26:16.197Z,57.00
2023-02-23T02:28:50.825Z,56.99
2023-02-23T02:31:49.836Z,56.82
2023-02-23T02:34:52.214Z,56.85
2023-02-23T02:37:33.589Z,56.79
2023-02-23T02:40:22.636Z,57.00
2023-02-23T02:43:12.742Z,57.06
2023-02-23T02:46:00.057Z,57.21
2023-02-23T02:48:31.345Z,57.15
2023-02-23T02:51:35.437Z,57.16
2023-02-23T02:54:27.470Z,57.03
2023-02-23T02:56:58.003Z,57.07
2023-02-23T02:59:46.458Z,57.21
2023-02-23T03:02:41.867Z,57.65
2023-02-23T03:05:33.696Z,57.56
2023-02-23T03:08:44.070Z,57.76
2023-02-23T03:11:32.208Z,57.49
2023-02-23T03:14:29.154Z,57.58
2023-02-23T03:17:29.593Z,57.67
2023-02-23T03:20:32.375Z,57.78
2023-02-23T03:23:25.756Z,57.55
2023-02-23T03:26:19.106Z,57.61
2023-02-23T03:29:21.283Z,57.58
2023-02-23T03:32:23.679Z,57.73
2023-02-23T03:35:27.061Z,58.02
2023-02-23T03:38:23.394Z,58.13
2023-02-23T03:41:11.843Z,58.13
2023-02-23T03:44:02.957Z,58.26
2023-02-23T03:46:50.794Z,58.26
2023-02-23T03:49:38.017Z,58.15
2023-02-23T03:52:29.133Z,58.34
2023-02-23T03:55:22.189Z,58.28
2023-02-23T03:58:11.262Z,58.14
2023-02-23T04:01:01.546Z,57.89
2023-02-23T04:03:49.830Z,57.75
2023-02-23T04:06:37.217Z,57.67
2023-02-23T04:09:26.289Z,58.23
2023-02-23T04:12:16.476Z,58.79
2023-02-23T04:14:59.909Z,59.29
2023-02-23T04:17:29.310Z,60.06
2023-02-23T04:19:57.895Z,60.10
2023-02-23T04:22:26.377Z,60.29
2023-02-23T04:24:54.870Z,60.55
2023-02-23T04:27:23.752Z,60.56
2023-02-23T04:29:53.159Z,60.50
2023-02-23T04:32:23.502Z,60.14
2023-02-23T04:34:52.081Z,60.12
2023-02-23T04:37:20.453Z,59.94
2023-02-23T04:39:50.266Z,60.15
2023-02-23T04:42:18.644Z,60.01
2023-02-23T04:44:47.537Z,59.79
2023-02-23T04:47:16.134Z,59.86
2023-02-23T04:49:44.707Z,59.69
2023-02-23T04:52:12.998Z,59.67
2023-02-23T04:54:42.093Z,59.53
2023-02-23T04:57:10.466Z,59.77
2023-02-23T04:59:38.949Z,59.58
2023-02-23T05:02:07.740Z,59.53
2023-02-23T05:04:39.016Z,59.64
2023-02-23T05:07:07.474Z,59.81
2023-02-23T05:09:35.852Z,59.13
2023-02-23T05:12:05.153Z,59.03
2023-02-23T05:14:34.617Z,59.41
2023-02-23T05:17:03.042Z,59.68
2023-02-23T05:19:35.623Z,60.02
2023-02-23T05:22:06.258Z,60.24
2023-02-23T05:24:34.843Z,60.34
2023-02-23T05:27:03.325Z,60.20
2023-02-23T05:29:32.015Z,60.44
2023-02-23T05:32:00.904Z,60.55
2023-02-23T05:34:29.596Z,60.27
2023-02-23T05:36:58.182Z,60.52
2023-02-23T05:39:27.276Z,60.29
2023-02-23T05:41:55.582Z,60.35
2023-02-23T05:44:24.860Z,60.48
2023-02-23T05:46:53.657Z,60.39
2023-02-23T05:49:22.951Z,60.42
2023-02-23T05:51:51.845Z,60.54
2023-02-23T05:54:20.837Z,60.36
2023-02-23T05:56:49.627Z,60.30
2023-02-23T05:59:18.625Z,60.23
2023-02-23T06:01:47.459Z,60.25
2023-02-23T06:04:19.484Z,59.95
2023-02-23T06:06:50.022Z,60.05
2023-02-23T06:09:19.020Z,59.87
2023-02-23T06:11:48.336Z,59.95
2023-02-23T06:14:16.802Z,59.75
2023-02-23T06:16:49.168Z,59.70
2023-02-23T06:19:18.907Z,59.67
2023-02-23T06:21:47.265Z,59.61
2023-02-23T06:24:16.466Z,59.58
2023-02-23T06:26:45.783Z,59.40
2023-02-23T06:29:14.968Z,59.18
2023-02-23T06:31:44.990Z,58.86
2023-02-23T06:34:13.881Z,58.62
2023-02-23T06:36:43.590Z,58.41
2023-02-23T06:39:13.831Z,58.27
2023-02-23T06:41:43.834Z,58.02
2023-02-23T06:44:12.318Z,57.84
2023-02-23T06:46:43.389Z,57.70
2023-02-23T06:49:12.252Z,57.62
2023-02-23T06:51:43.228Z,57.29
2023-02-23T06:54:11.772Z,57.17
2023-02-23T06:56:40.874Z,57.39
2023-02-23T06:59:12.741Z,56.89
2023-02-23T07:01:45.059Z,57.06
2023-02-23T07:04:16.228Z,57.13
2023-02-23T07:06:45.246Z,57.01
2023-02-23T07:09:15.678Z,56.78
2023-02-23T07:11:47.123Z,56.22
2023-02-23T07:14:26.086Z,56.35
2023-02-23T07:16:55.354Z,56.65
2023-02-23T07:19:25.081Z,56.68
2023-02-23T07:21:54.059Z,56.62
2023-02-23T07:24:22.744Z,56.57
2023-02-23T07:26:52.366Z,56.28
2023-02-23T07:29:21.042Z,56.16
2023-02-23T07:31:50.822Z,56.09
2023-02-23T07:34:19.544Z,55.58
2023-02-23T07:36:48.027Z,55.32
2023-02-23T07:39:16.513Z,54.53
2023-02-23T07:41:44.995Z,54.22
2023-02-23T07:44:22.329Z,54.64
2023-02-23T07:46:53.128Z,54.58
2023-02-23T07:49:21.503Z,54.04
2023-02-23T07:51:50.085Z,53.67
2023-02-23T07:54:20.020Z,53.58
2023-02-23T07:56:48.490Z,53.61
2023-02-23T07:59:17.898Z,53.35
2023-02-23T08:01:46.273Z,52.77
2023-02-23T08:04:15.513Z,52.17
2023-02-23T08:06:44.568Z,51.55
2023-02-23T08:09:13.052Z,51.51
2023-02-23T08:11:41.431Z,50.63
2023-02-23T08:14:11.350Z,50.82
2023-02-23T08:16:40.005Z,50.26
2023-02-23T08:19:09.953Z,50.21
2023-02-23T08:21:38.945Z,49.69
2023-02-23T08:24:11.325Z,49.23
2023-02-23T08:26:41.595Z,48.70
2023-02-23T08:29:10.365Z,48.49
2023-02-23T08:31:40.887Z,48.38
2023-02-23T08:34:10.471Z,48.37
2023-02-23T08:36:43.686Z,47.20
2023-02-23T08:39:13.990Z,47.14
2023-02-23T08:41:43.602Z,46.80
2023-02-23T08:44:12.082Z,45.68
2023-02-23T08:47:47.135Z,45.91
2023-02-23T08:50:25.229Z,45.28
2023-02-23T08:52:55.256Z,45.05
2023-02-23T08:55:26.802Z,43.85
2023-02-23T08:57:55.389Z,43.49
2023-02-23T09:00:24.524Z,43.65
2023-02-23T09:02:53.289Z,44.72
2023-02-23T09:05:22.196Z,45.06
2023-02-23T09:07:51.678Z,45.20
2023-02-23T09:10:20.892Z,44.59
2023-02-23T09:12:51.716Z,43.70
2023-02-23T09:15:20.342Z,43.66
2023-02-23T09:17:48.751Z,43.10
2023-02-23T09:20:18.191Z,42.58
2023-02-23T09:22:49.749Z,42.89
2023-02-23T09:25:23.158Z,41.91
2023-02-23T09:27:53.512Z,42.26
2023-02-23T09:30:22.575Z,41.80
2023-02-23T09:32:51.152Z,40.94
2023-02-23T09:35:20.916Z,40.66
2023-02-23T09:37:53.653Z,40.59
2023-02-23T09:40:27.051Z,39.74
2023-02-23T09:43:15.613Z,39.32
2023-02-23T09:45:48.427Z,39.46
2023-02-23T09:48:25.470Z,38.61
2023-02-23T09:50:55.898Z,37.49
2023-02-23T09:53:34.080Z,37.61
2023-02-23T09:56:06.397Z,38.16
2023-02-23T09:58:36.199Z,37.24
2023-02-23T10:02:32.662Z,36.42
2023-02-23T10:05:05.822Z,36.91
2023-02-23T10:07:45.181Z,36.32
2023-02-23T10:10:29.360Z,35.93
2023-02-23T10:13:00.685Z,35.01
2023-02-23T10:15:53.273Z,35.95
2023-02-23T10:18:45.286Z,35.67
2023-02-23T10:21:18.746Z,37.22
2023-02-23T10:23:47.479Z,38.41
2023-02-23T10:26:24.489Z,38.52
2023-02-23T10:28:54.563Z,38.07
2023-02-23T10:31:41.602Z,37.89
2023-02-23T10:34:18.930Z,37.87
2023-02-23T10:36:58.682Z,36.89
2023-02-23T10:39:27.745Z,35.92
2023-02-23T10:42:01.214Z,36.72
2023-02-23T10:44:30.124Z,35.92
2023-02-23T10:47:08.350Z,35.49
2023-02-23T10:49:48.996Z,35.28
2023-02-23T10:52:48.926Z,34.51
2023-02-23T10:55:26.423Z,36.16
2023-02-23T10:58:03.809Z,35.61
2023-02-23T11:00:34.228Z,35.50
2023-02-23T11:03:04.680Z,35.11
2023-02-23T11:05:37.974Z,33.75
2023-02-23T11:08:20.377Z,33.67
2023-02-23T11:11:05.857Z,33.16
2023-02-23T11:13:39.875Z,33.61
2023-02-23T11:16:13.457Z,33.46
2023-02-23T11:19:04.082Z,32.99
2023-02-23T11:21:40.353Z,33.39
2023-02-23T11:24:36.987Z,32.42
2023-02-23T11:27:07.318Z,32.88
2023-02-23T11:29:36.828Z,32.65
2023-02-23T11:32:30.697Z,31.62
2023-02-23T11:35:20.795Z,31.71
2023-02-23T11:37:49.822Z,31.67
2023-02-23T11:40:21.350Z,30.42
2023-02-23T11:42:53.931Z,30.82
2023-02-23T11:45:23.422Z,31.11
2023-02-23T11:47:59.087Z,31.20
2023-02-23T11:50:35.807Z,30.91
2023-02-23T11:53:14.099Z,30.94
2023-02-23T11:55:51.582Z,30.83
2023-02-23T11:58:36.248Z,30.57
2023-02-23T12:01:13.795Z,29.79
2023-02-23T12:03:56.582Z,29.10
2023-02-23T12:06:30.497Z,28.56
2023-02-23T12:09:03.149Z,28.09
2023-02-23T12:11:34.780Z,27.29
2023-02-23T12:14:28.443Z,27.79
2023-02-23T12:17:04.305Z,27.54
2023-02-23T12:19:55.046Z,28.84
2023-02-23T12:22:26.997Z,27.79
2023-02-23T12:25:05.326Z,27.87
2023-02-23T12:27:44.878Z,27.13
2023-02-23T12:30:38.335Z,26.88
2023-02-23T12:33:30.320Z,26.77
2023-02-23T12:36:21.866Z,27.34
2023-02-23T12:38:58.155Z,27.50
2023-02-23T12:41:40.774Z,26.45
2023-02-23T12:44:15.606Z,26.05
2023-02-23T12:46:51.475Z,25.05
2023-02-23T12:49:22.910Z,25.26
2023-02-23T12:51:53.952Z,26.31
2023-02-23T12:54:22.961Z,25.67
2023-02-23T12:56:55.139Z,25.46
2023-02-23T12:59:34.146Z,25.54
2023-02-23T13:02:06.561Z,25.20
2023-02-23T13:04:51.084Z,24.63
2023-02-23T13:07:35.151Z,23.31
2023-02-23T13:10:12.680Z,23.05
2023-02-23T13:12:51.152Z,22.69
2023-02-23T13:15:32.136Z,22.62
2023-02-23T13:18:16.074Z,22.39
2023-02-23T13:20:51.419Z,21.93
2023-02-23T13:23:34.130Z,21.39
2023-02-23T13:26:11.830Z,20.52
2023-02-23T13:29:07.654Z,20.21
2023-02-23T13:31:37.286Z,20.58
2023-02-23T13:34:10.503Z,20.81
2023-02-23T13:36:40.986Z,21.26
2023-02-23T13:39:18.942Z,21.04
2023-02-23T13:41:52.526Z,21.58
2023-02-23T13:44:37.254Z,21.36
2023-02-23T13:47:35.125Z,20.75
2023-02-23T13:50:28.207Z,20.05
2023-02-23T13:52:58.937Z,19.87
2023-02-23T13:55:29.449Z,20.70
2023-02-23T13:58:11.247Z,21.02
2023-02-23T14:00:40.242Z,21.45
2023-02-23T14:03:09.391Z,22.21
2023-02-23T14:05:44.479Z,23.32
2023-02-23T14:08:33.255Z,24.11
2023-02-23T14:11:02.963Z,24.38
2023-02-23T14:13:33.128Z,24.95
2023-02-23T14:16:16.529Z,25.52
2023-02-23T14:18:54.491Z,26.03
2023-02-23T14:21:52.699Z,26.05
2023-02-23T14:24:25.903Z,26.17
2023-02-23T14:27:38.400Z,25.52
2023-02-23T14:30:11.500Z,25.84
2023-02-23T14:32:42.121Z,26.17
2023-02-23T14:35:32.326Z,25.80
2023-02-23T14:38:02.136Z,25.55
2023-02-23T14:40:35.141Z,25.48
2023-02-23T14:43:04.027Z,25.14
2023-02-23T14:45:34.549Z,25.14
2023-02-23T14:48:07.542Z,25.72
2023-02-23T14:50:36.542Z,25.95
2023-02-23T14:53:06.867Z,26.10
2023-02-23T14:55:38.308Z,25.93
2023-02-23T14:58:27.889Z,25.79
2023-02-23T15:00:57.299Z,26.19
2023-02-23T15:03:25.912Z,26.87
2023-02-23T15:05:59.186Z,27.15
2023-02-23T15:08:30.523Z,27.55
2023-02-23T15:11:12.550Z,28.20
2023-02-23T15:13:50.144Z,29.21
2023-02-23T15:16:32.251Z,30.32
2023-02-23T15:19:01.513Z,31.31
2023-02-23T15:21:30.314Z,31.88
2023-02-23T15:24:24.605Z,32.35
2023-02-23T15:26:53.845Z,33.33
2023-02-23T15:29:30.990Z,33.68
2023-02-23T15:32:15.425Z,34.30
2023-02-23T15:34:43.827Z,34.85
2023-02-23T15:37:20.711Z,35.25
2023-02-23T15:39:53.516Z,35.67
2023-02-23T15:42:25.233Z,36.32
2023-02-23T15:45:01.828Z,36.89
2023-02-23T15:47:35.658Z,37.36
2023-02-23T15:50:08.879Z,37.74
2023-02-23T15:52:39.913Z,38.53
2023-02-23T15:55:10.249Z,38.72
2023-02-23T15:57:53.536Z,39.26
2023-02-23T16:00:32.882Z,39.42
2023-02-23T16:03:04.585Z,40.09
2023-02-23T16:05:41.937Z,40.50
2023-02-23T16:08:23.200Z,40.91
2023-02-23T16:11:13.295Z,41.63
2023-02-23T16:13:45.717Z,41.88
2023-02-23T16:16:25.787Z,42.31
2023-02-23T16:19:01.611Z,42.77
2023-02-23T16:21:31.706Z,43.14
2023-02-23T16:24:02.036Z,43.61
2023-02-23T16:26:55.131Z,43.84
2023-02-23T16:29:44.165Z,43.97
2023-02-23T16:32:20.282Z,44.11
2023-02-23T16:35:14.482Z,44.45
2023-02-23T16:38:01.945Z,44.85
2023-02-23T16:40:30.641Z,44.88
2023-02-23T16:42:59.851Z,45.07
2023-02-23T16:45:29.911Z,45.30
2023-02-23T16:48:02.469Z,45.37
2023-02-23T16:50:31.127Z,45.66
2023-02-23T16:53:02.324Z,45.76
2023-02-23T16:55:31.177Z,46.06
2023-02-23T16:58:01.003Z,46.29
2023-02-23T17:00:32.411Z,46.25
2023-02-23T17:03:01.440Z,46.53
2023-02-23T17:05:31.485Z,46.79
2023-02-23T17:08:05.261Z,46.81
2023-02-23T17:10:34.705Z,47.14
2023-02-23T17:13:27.431Z,47.14
2023-02-23T17:15:56.596Z,47.34
2023-02-23T17:18:27.859Z,47.41
2023-02-23T17:20:57.169Z,47.59
2023-02-23T17:23:28.418Z,47.84
2023-02-23T17:25:57.822Z,47.66
2023-02-23T17:28:26.211Z,47.68
2023-02-23T17:30:55.269Z,47.65
2023-02-23T17:33:24.297Z,47.83
2023-02-23T17:35:52.597Z,47.71
2023-02-23T17:38:33.978Z,47.65
2023-02-23T17:41:04.288Z,47.81
2023-02-23T17:43:32.870Z,47.89
2023-02-23T17:46:02.530Z,47.88
2023-02-23T17:48:35.067Z,48.30
2023-02-23T17:51:09.436Z,48.01
2023-02-23T17:53:38.484Z,48.16
2023-02-23T17:56:10.053Z,47.92
2023-02-23T17:58:40.478Z,47.94
2023-02-23T18:01:11.028Z,47.95
2023-02-23T18:03:41.115Z,48.27
2023-02-23T18:06:12.911Z,48.30
2023-02-23T18:08:42.618Z,48.45
2023-02-23T18:11:11.516Z,48.22
2023-02-23T18:13:40.597Z,48.45
2023-02-23T18:16:10.442Z,48.58
2023-02-23T18:18:40.116Z,48.47
2023-02-23T18:21:13.521Z,48.36
2023-02-23T18:23:42.122Z,48.34
2023-02-23T18:26:12.957Z,48.36
2023-02-23T18:28:44.693Z,48.59
2023-02-23T18:31:17.990Z,48.58
2023-02-23T18:33:53.214Z,48.41
2023-02-23T18:36:30.049Z,48.47
2023-02-23T18:38:58.816Z,48.06
2023-02-23T18:41:31.090Z,48.13
2023-02-23T18:44:05.122Z,48.42
2023-02-23T18:46:33.647Z,48.47
2023-02-23T18:49:03.827Z,48.58
2023-02-23T18:51:33.230Z,48.69
2023-02-23T18:54:03.676Z,48.70
2023-02-23T18:56:32.870Z,48.75
2023-02-23T18:59:04.405Z,49.04
2023-02-23T19:01:37.807Z,49.25
2023-02-23T19:04:08.549Z,49.03
2023-02-23T19:06:39.375Z,49.17
2023-02-23T19:09:14.712Z,49.35
2023-02-23T19:11:44.741Z,49.47
2023-02-23T19:14:17.115Z,49.28
2023-02-23T19:16:47.028Z,49.42
2023-02-23T19:19:18.388Z,49.39
2023-02-23T19:21:46.764Z,49.50
2023-02-23T19:24:15.141Z,49.59
2023-02-23T19:26:44.751Z,49.78
2023-02-23T19:29:13.342Z,49.85
2023-02-23T19:31:43.026Z,50.03
2023-02-23T19:34:11.433Z,50.41
2023-02-23T19:36:40.943Z,50.47
2023-02-23T19:39:15.884Z,50.77
2023-02-23T19:41:45.281Z,50.84
2023-02-23T19:44:17.626Z,51.23
2023-02-23T19:46:46.039Z,51.31
2023-02-23T19:49:14.833Z,51.45
2023-02-23T19:51:45.156Z,51.59
2023-02-23T19:54:13.639Z,51.73
2023-02-23T19:56:43.558Z,51.98
2023-02-23T19:59:12.346Z,52.25
2023-02-23T20:01:43.803Z,52.44
2023-02-23T20:04:12.922Z,52.62
2023-02-23T20:06:47.324Z,52.71
2023-02-23T20:09:17.369Z,52.95
2023-02-23T20:11:49.627Z,53.17
2023-02-23T20:14:18.601Z,53.40
2023-02-23T20:16:48.743Z,53.56
2023-02-23T20:19:18.027Z,53.69
2023-02-23T20:21:46.403Z,54.02
2023-02-23T20:24:16.603Z,54.09
2023-02-23T20:26:46.040Z,54.15
2023-02-23T20:29:18.171Z,54.50
2023-02-23T20:31:52.572Z,54.49
2023-02-23T20:34:24.136Z,54.79
2023-02-23T20:36:54.049Z,54.95
2023-02-23T20:39:27.086Z,54.92
2023-02-23T20:41:55.474Z,55.23
2023-02-23T20:44:24.564Z,55.54
2023-02-23T20:46:53.157Z,55.73
2023-02-23T20:49:22.979Z,55.81
2023-02-23T20:51:52.478Z,56.03
2023-02-23T20:54:21.270Z,56.14
2023-02-23T20:57:07.913Z,56.19
2023-02-23T20:59:38.093Z,56.33
2023-02-23T21:02:08.428Z,56.51
2023-02-23T21:04:39.170Z,56.50
2023-02-23T21:07:07.882Z,56.56
2023-02-23T21:09:40.328Z,56.68
2023-02-23T21:12:12.913Z,56.79
2023-02-23T21:14:50.402Z,56.78
2023-02-23T21:17:18.886Z,56.86
2023-02-23T21:19:47.371Z,56.96
2023-02-23T21:22:17.291Z,57.19
2023-02-23T21:24:45.972Z,57.16
2023-02-23T21:27:14.355Z,57.32
2023-02-23T21:29:42.996Z,57.54
2023-02-23T21:32:14.658Z,57.79
2023-02-23T21:34:43.800Z,57.85
2023-02-23T21:37:12.928Z,58.08
2023-02-23T21:39:41.893Z,58.16
2023-02-23T21:42:10.788Z,58.24
2023-02-23T21:44:40.010Z,58.68
2023-02-23T21:47:08.472Z,58.75
2023-02-23T21:49:38.710Z,58.94
2023-02-23T21:52:08.928Z,59.03
2023-02-23T21:54:39.041Z,59.07
2023-02-23T21:57:07.637Z,59.35
2023-02-23T21:59:36.005Z,59.53
2023-02-23T22:02:04.780Z,59.52
2023-02-23T22:04:36.244Z,59.73
2023-02-23T22:07:05.676Z,59.94
2023-02-23T22:09:35.369Z,60.05
2023-02-23T22:12:04.888Z,60.19
2023-02-23T22:14:34.997Z,60.47
2023-02-23T22:20:01.564Z,60.90
2023-02-23T22:22:36.329Z,60.98
2023-02-23T22:25:06.423Z,61.15
2023-02-23T22:27:35.609Z,61.45
2023-02-23T22:30:06.655Z,61.53
2023-02-23T22:32:37.063Z,61.53
2023-02-23T22:35:07.530Z,61.56
2023-02-23T22:37:36.918Z,61.56
2023-02-23T22:40:24.549Z,61.72
2023-02-23T22:42:54.979Z,61.88
2023-02-23T22:45:23.365Z,61.90
2023-02-23T22:47:55.737Z,61.97
2023-02-23T22:50:24.217Z,62.23
2023-02-23T22:52:52.599Z,62.37
2023-02-23T22:55:20.981Z,62.63
2023-02-23T22:57:49.696Z,62.73
2023-02-23T23:00:19.094Z,62.87
2023-02-23T23:02:47.656Z,63.07
2023-02-23T23:05:18.087Z,63.21
2023-02-23T23:07:49.341Z,63.29
2023-02-23T23:10:18.436Z,63.48
2023-02-23T23:12:47.222Z,63.47
2023-02-23T23:15:17.476Z,63.47
2023-02-23T23:17:50.229Z,63.59
2023-02-23T23:20:23.221Z,63.49
2023-02-23T23:22:54.986Z,63.55
2023-02-23T23:25:29.818Z,63.67
2023-02-23T23:27:58.600Z,63.76
2023-02-23T23:30:29.416Z,63.85
2023-02-23T23:32:58.689Z,63.98
2023-02-23T23:35:27.132Z,63.92
2023-02-23T23:37:57.045Z,63.55
2023-02-23T23:40:25.741Z,63.60
2023-02-23T23:42:55.652Z,63.60
2023-02-23T23:45:27.743Z,63.82
2023-02-23T23:47:56.205Z,63.66
2023-02-23T23:50:27.522Z,63.98
2023-02-23T23:52:57.308Z,64.00
2023-02-23T23:55:31.256Z,64.04
2023-02-23T23:58:00.664Z,63.96
